Terminal Aerodrome Forecast
Issued by NWS

Current Version | Previous Version | Graphics & Text | Print | Product List | Glossary On
Versions: 1 2 3 4 5 6 7 8 9 10 11 12 13 14 15 16 17 18 19 20 21 22 23 24 25
462
FTUS41 KRLX 121749
TAFCKB
TAF
KCKB 121749Z 1218/1318 27005KT 6SM -SN OVC040
      TEMPO 1218/1222 4SM -SN BKN030
     FM122200 27010G19KT P6SM OVC050
     FM130400 30012G24KT 2SM -SHSN OVC012
     FM130700 32010G22KT 5SM -SHSN OVC015
     FM131400 33013G25KT 6SM -SHSN BKN020=

USA.gov is the U.S. government's official web portal to all federal, state and local government web resources and services.